createdAt,value
2023-06-26T00:00:36.736Z,100.00
2023-06-26T00:01:41.293Z,100.00
2023-06-26T00:02:44.430Z,100.00
2023-06-26T00:03:47.529Z,100.00
2023-06-26T00:04:54.951Z,100.00
2023-06-26T00:06:01.680Z,100.00
2023-06-26T00:07:05.832Z,100.00
2023-06-26T00:08:16.726Z,100.00
2023-06-26T00:09:19.443Z,100.00
2023-06-26T00:10:22.098Z,100.00
2023-06-26T00:11:24.889Z,100.00
2023-06-26T00:12:28.352Z,100.00
2023-06-26T00:13:31.161Z,100.00
2023-06-26T00:14:34.034Z,100.00
2023-06-26T00:15:37.056Z,100.00
2023-06-26T00:16:39.885Z,100.00
2023-06-26T00:17:43.058Z,100.00
2023-06-26T00:18:45.974Z,100.00
2023-06-26T00:19:49.407Z,100.00
2023-06-26T00:20:52.040Z,100.00
2023-06-26T00:21:54.955Z,100.00
2023-06-26T00:23:17.842Z,100.00
2023-06-26T00:24:20.703Z,100.00
2023-06-26T00:25:23.409Z,100.00
2023-06-26T00:26:26.209Z,100.00
2023-06-26T00:27:28.841Z,100.00
2023-06-26T00:28:31.906Z,100.00
2023-06-26T00:29:34.666Z,100.00
2023-06-26T00:30:37.536Z,100.00
2023-06-26T00:31:41.546Z,100.00
2023-06-26T00:32:44.404Z,100.00
2023-06-26T00:33:47.442Z,100.00
2023-06-26T00:34:50.190Z,100.00
2023-06-26T00:35:52.950Z,100.00
2023-06-26T00:36:55.680Z,100.00
2023-06-26T00:38:00.273Z,100.00
2023-06-26T00:39:04.699Z,100.00
2023-06-26T00:40:08.149Z,100.00
2023-06-26T00:41:13.948Z,100.00
2023-06-26T00:42:17.013Z,100.00
2023-06-26T00:43:20.681Z,100.00
2023-06-26T00:44:24.891Z,100.00
2023-06-26T00:45:38.285Z,100.00
2023-06-26T00:46:45.379Z,100.00
2023-06-26T00:47:50.194Z,100.00
2023-06-26T00:48:54.480Z,100.00
2023-06-26T00:49:58.196Z,100.00
2023-06-26T00:51:00.893Z,100.00
2023-06-26T00:52:04.734Z,100.00
2023-06-26T00:53:07.526Z,100.00
2023-06-26T00:54:10.390Z,100.00
2023-06-26T00:55:13.962Z,100.00
2023-06-26T00:56:18.558Z,100.00
2023-06-26T00:57:21.356Z,100.00
2023-06-26T00:58:25.490Z,100.00
2023-06-26T00:59:28.272Z,100.00
2023-06-26T01:00:31.808Z,100.00
2023-06-26T01:01:34.568Z,100.00
2023-06-26T01:02:40.083Z,100.00
2023-06-26T01:03:45.575Z,100.00
2023-06-26T01:04:52.549Z,100.00
2023-06-26T01:06:00.401Z,100.00
2023-06-26T01:07:05.024Z,100.00
2023-06-26T01:08:15.022Z,100.00
2023-06-26T01:09:19.670Z,100.00
2023-06-26T01:10:22.530Z,100.00
2023-06-26T01:11:25.781Z,100.00
2023-06-26T01:12:28.762Z,100.00
2023-06-26T01:13:32.692Z,100.00
2023-06-26T01:14:36.575Z,100.00
2023-06-26T01:15:39.319Z,100.00
2023-06-26T01:16:48.541Z,100.00
2023-06-26T01:17:53.047Z,100.00
2023-06-26T01:18:56.449Z,100.00
2023-06-26T01:20:08.196Z,100.00
2023-06-26T01:21:13.986Z,100.00
2023-06-26T01:22:35.699Z,100.00
2023-06-26T01:26:10.672Z,100.00
2023-06-26T01:27:14.467Z,100.00
2023-06-26T01:28:20.769Z,100.00
2023-06-26T01:29:25.998Z,100.00
2023-06-26T01:30:29.561Z,100.00
2023-06-26T01:31:32.634Z,100.00
2023-06-26T01:32:35.878Z,100.00
2023-06-26T01:33:40.045Z,100.00
2023-06-26T01:34:44.839Z,100.00
2023-06-26T01:35:47.937Z,100.00
2023-06-26T01:36:50.632Z,100.00
2023-06-26T01:37:53.416Z,100.00
2023-06-26T01:38:56.428Z,100.00
2023-06-26T01:40:00.161Z,100.00
2023-06-26T01:41:04.739Z,100.00
2023-06-26T01:42:09.107Z,100.00
2023-06-26T01:43:55.526Z,100.00
2023-06-26T01:44:59.538Z,100.00
2023-06-26T01:46:09.575Z,100.00
2023-06-26T01:47:18.556Z,100.00
2023-06-26T01:48:26.880Z,100.00
2023-06-26T01:51:42.498Z,100.00
2023-06-26T01:53:08.444Z,100.00
2023-06-26T01:54:17.894Z,100.00
2023-06-26T01:55:37.348Z,100.00
2023-06-26T01:56:41.300Z,100.00
2023-06-26T01:57:46.781Z,100.00
2023-06-26T01:58:54.525Z,100.00
2023-06-26T01:59:58.167Z,100.00
2023-06-26T02:01:01.393Z,100.00
2023-06-26T02:02:08.649Z,100.00
2023-06-26T02:03:14.004Z,100.00
2023-06-26T02:04:16.876Z,100.00
2023-06-26T02:05:32.069Z,100.00
2023-06-26T02:06:35.711Z,100.00
2023-06-26T02:07:38.772Z,100.00
2023-06-26T02:08:41.965Z,100.00
2023-06-26T02:09:44.764Z,100.00
2023-06-26T02:10:47.504Z,100.00
2023-06-26T02:11:52.823Z,100.00
2023-06-26T02:12:56.068Z,100.00
2023-06-26T02:13:59.473Z,100.00
2023-06-26T02:15:02.395Z,100.00
2023-06-26T02:16:05.448Z,100.00
2023-06-26T02:17:09.825Z,100.00
2023-06-26T02:18:12.628Z,100.00
2023-06-26T02:19:22.713Z,100.00
2023-06-26T02:20:25.578Z,100.00
2023-06-26T02:21:28.651Z,100.00
2023-06-26T02:22:32.829Z,100.00
2023-06-26T02:23:35.607Z,100.00
2023-06-26T02:24:38.657Z,100.00
2023-06-26T02:25:58.617Z,100.00
2023-06-26T02:27:01.669Z,100.00
2023-06-26T02:28:05.023Z,100.00
2023-06-26T02:29:07.728Z,100.00
2023-06-26T02:30:30.517Z,100.00
2023-06-26T02:31:36.278Z,100.00
2023-06-26T02:32:39.310Z,100.00
2023-06-26T02:33:43.733Z,100.00
2023-06-26T02:34:46.436Z,100.00
2023-06-26T02:35:51.281Z,100.00
2023-06-26T02:36:57.383Z,100.00
2023-06-26T02:38:00.487Z,100.00
2023-06-26T02:39:03.410Z,100.00
2023-06-26T02:40:19.628Z,100.00
2023-06-26T02:41:22.710Z,100.00
2023-06-26T02:42:26.588Z,100.00
2023-06-26T02:43:29.550Z,100.00
2023-06-26T02:44:32.545Z,100.00
2023-06-26T02:45:35.235Z,100.00
2023-06-26T02:46:38.221Z,100.00
2023-06-26T02:47:41.325Z,100.00
2023-06-26T02:48:45.004Z,100.00
2023-06-26T02:49:48.024Z,100.00
2023-06-26T02:50:50.889Z,100.00
2023-06-26T02:51:55.082Z,100.00
2023-06-26T02:52:58.841Z,100.00
2023-06-26T02:54:02.163Z,100.00
2023-06-26T02:55:06.176Z,100.00
2023-06-26T02:56:08.979Z,100.00
2023-06-26T02:57:14.049Z,100.00
2023-06-26T02:58:16.844Z,100.00
2023-06-26T02:59:20.193Z,100.00
2023-06-26T03:00:42.517Z,100.00
2023-06-26T03:01:45.978Z,100.00
2023-06-26T03:02:48.737Z,100.00
2023-06-26T03:03:52.581Z,100.00
2023-06-26T03:04:55.941Z,100.00
2023-06-26T03:05:58.651Z,100.00
2023-06-26T03:07:02.600Z,100.00
2023-06-26T03:08:06.001Z,100.00
2023-06-26T03:09:08.795Z,100.00
2023-06-26T03:10:12.686Z,100.00
2023-06-26T03:11:15.451Z,100.00
2023-06-26T03:12:18.205Z,100.00
2023-06-26T03:13:20.884Z,100.00
2023-06-26T03:14:23.592Z,100.00
2023-06-26T03:15:27.052Z,100.00
2023-06-26T03:16:30.369Z,100.00
2023-06-26T03:17:33.129Z,100.00
2023-06-26T03:18:36.598Z,100.00
2023-06-26T03:19:39.380Z,100.00
2023-06-26T03:20:44.038Z,100.00
2023-06-26T03:21:46.766Z,100.00
2023-06-26T03:22:49.438Z,100.00
2023-06-26T03:23:52.595Z,100.00
2023-06-26T03:24:56.894Z,100.00
2023-06-26T03:25:59.932Z,100.00
2023-06-26T03:27:02.743Z,100.00
2023-06-26T03:28:05.525Z,100.00
2023-06-26T03:29:09.756Z,100.00
2023-06-26T03:30:29.721Z,100.00
2023-06-26T03:31:33.210Z,100.00
2023-06-26T03:32:36.040Z,100.00
2023-06-26T03:33:39.524Z,100.00
2023-06-26T03:34:42.188Z,100.00
2023-06-26T03:35:45.043Z,100.00
2023-06-26T03:36:48.139Z,100.00
2023-06-26T03:37:51.138Z,100.00
2023-06-26T03:38:57.970Z,100.00
2023-06-26T03:40:00.968Z,100.00
2023-06-26T03:41:04.039Z,100.00
2023-06-26T03:42:07.649Z,100.00
2023-06-26T03:43:10.319Z,100.00
2023-06-26T03:44:14.111Z,100.00
2023-06-26T03:45:17.409Z,100.00
2023-06-26T03:46:20.969Z,100.00
2023-06-26T03:47:24.129Z,100.00
2023-06-26T03:48:26.999Z,100.00
2023-06-26T03:49:29.790Z,100.00
2023-06-26T03:50:49.657Z,100.00
2023-06-26T03:51:52.669Z,100.00
2023-06-26T03:52:55.913Z,100.00
2023-06-26T03:53:58.655Z,100.00
2023-06-26T03:55:02.050Z,100.00
2023-06-26T03:56:05.006Z,100.00
2023-06-26T03:57:07.753Z,100.00
2023-06-26T03:58:10.783Z,100.00
2023-06-26T03:59:14.244Z,100.00
2023-06-26T04:00:17.363Z,100.00
2023-06-26T04:01:21.131Z,100.00
2023-06-26T04:02:25.294Z,100.00
2023-06-26T04:03:28.087Z,100.00
2023-06-26T04:04:31.260Z,100.00
2023-06-26T04:05:34.318Z,100.00
2023-06-26T04:06:37.578Z,100.00
2023-06-26T04:07:40.682Z,100.00
2023-06-26T04:08:43.472Z,100.00
2023-06-26T04:09:46.336Z,100.00
2023-06-26T04:10:49.094Z,100.00
2023-06-26T04:11:51.899Z,100.00
2023-06-26T04:12:54.994Z,100.00
2023-06-26T04:13:57.725Z,100.00
2023-06-26T04:15:00.411Z,100.00
2023-06-26T04:16:03.239Z,100.00
2023-06-26T04:17:05.984Z,100.00
2023-06-26T04:18:08.906Z,100.00
2023-06-26T04:19:11.572Z,100.00
2023-06-26T04:20:14.329Z,100.00
2023-06-26T04:21:17.969Z,100.00
2023-06-26T04:22:21.008Z,100.00
2023-06-26T04:23:24.129Z,100.00
2023-06-26T04:24:26.873Z,100.00
2023-06-26T04:25:30.481Z,100.00
2023-06-26T04:26:33.213Z,100.00
2023-06-26T04:27:36.823Z,100.00
2023-06-26T04:28:41.575Z,100.00
2023-06-26T04:29:44.617Z,100.00
2023-06-26T04:30:47.315Z,100.00
2023-06-26T04:31:50.066Z,100.00
2023-06-26T04:32:52.826Z,100.00
2023-06-26T04:33:56.324Z,100.00
2023-06-26T04:34:58.939Z,100.00
2023-06-26T04:36:04.959Z,100.00
2023-06-26T04:37:07.914Z,100.00
2023-06-26T04:38:10.665Z,100.00
2023-06-26T04:39:14.219Z,100.00
2023-06-26T04:40:16.888Z,100.00
2023-06-26T04:41:19.554Z,100.00
2023-06-26T04:42:25.211Z,100.00
2023-06-26T04:43:27.940Z,100.00
2023-06-26T04:44:30.949Z,100.00
2023-06-26T04:45:33.906Z,100.00
2023-06-26T04:46:37.607Z,100.00
2023-06-26T04:47:49.194Z,100.00
2023-06-26T04:48:51.968Z,100.00
2023-06-26T04:49:56.277Z,100.00
2023-06-26T04:51:00.654Z,100.00
2023-06-26T04:52:04.138Z,100.00
2023-06-26T04:53:06.860Z,100.00
2023-06-26T04:54:11.629Z,100.00
2023-06-26T04:55:14.680Z,100.00
2023-06-26T04:56:18.726Z,100.00
2023-06-26T04:57:21.501Z,100.00
2023-06-26T04:58:24.205Z,100.00
2023-06-26T04:59:26.975Z,100.00
2023-06-26T05:00:30.066Z,100.00
2023-06-26T05:01:33.467Z,100.00
2023-06-26T05:02:36.577Z,100.00
2023-06-26T05:03:39.599Z,100.00
2023-06-26T05:04:43.696Z,100.00
2023-06-26T05:06:05.256Z,100.00
2023-06-26T05:07:11.791Z,100.00
2023-06-26T05:08:25.525Z,100.00
2023-06-26T05:09:28.241Z,100.00
2023-06-26T05:10:31.920Z,100.00
2023-06-26T05:11:34.840Z,100.00
2023-06-26T05:12:37.494Z,100.00
2023-06-26T05:13:40.157Z,100.00
2023-06-26T05:14:42.939Z,100.00
2023-06-26T05:15:46.179Z,100.00
2023-06-26T05:16:49.235Z,100.00
2023-06-26T05:17:51.878Z,100.00
2023-06-26T05:18:55.700Z,100.00
2023-06-26T05:19:58.710Z,100.00
2023-06-26T05:21:02.138Z,100.00
2023-06-26T05:22:08.272Z,100.00
2023-06-26T05:23:13.484Z,100.00
2023-06-26T05:24:18.263Z,100.00
2023-06-26T05:25:25.042Z,100.00
2023-06-26T05:26:28.281Z,100.00
2023-06-26T05:27:31.658Z,100.00
2023-06-26T05:28:49.650Z,100.00
2023-06-26T05:29:52.569Z,100.00
2023-06-26T05:30:56.388Z,100.00
2023-06-26T05:32:05.385Z,100.00
2023-06-26T05:33:13.038Z,100.00
2023-06-26T05:34:21.151Z,100.00
2023-06-26T05:35:24.623Z,100.00
2023-06-26T05:36:29.856Z,100.00
2023-06-26T05:37:33.020Z,100.00
2023-06-26T05:38:36.538Z,100.00
2023-06-26T05:39:39.470Z,100.00
2023-06-26T05:40:42.773Z,100.00
2023-06-26T05:41:46.511Z,100.00
2023-06-26T05:42:50.056Z,100.00
2023-06-26T05:43:55.571Z,100.00
2023-06-26T05:44:58.308Z,100.00
2023-06-26T05:46:01.155Z,100.00
2023-06-26T05:47:04.014Z,100.00
2023-06-26T05:48:07.369Z,100.00
2023-06-26T05:49:11.582Z,100.00
2023-06-26T05:50:15.794Z,100.00
2023-06-26T05:51:19.067Z,100.00
2023-06-26T05:52:22.053Z,100.00
2023-06-26T05:53:25.439Z,100.00
2023-06-26T05:54:28.827Z,100.00
2023-06-26T05:55:31.836Z,100.00
2023-06-26T05:56:34.828Z,100.00
2023-06-26T05:57:38.955Z,100.00
2023-06-26T05:58:43.560Z,100.00
2023-06-26T05:59:47.902Z,100.00
2023-06-26T06:00:50.740Z,100.00
2023-06-26T06:01:54.242Z,100.00
2023-06-26T06:02:56.981Z,100.00
2023-06-26T06:03:59.766Z,100.00
2023-06-26T06:05:02.924Z,100.00
2023-06-26T06:06:06.966Z,100.00
2023-06-26T06:07:10.436Z,100.00
2023-06-26T06:08:13.330Z,100.00
2023-06-26T06:09:16.130Z,100.00
2023-06-26T06:10:18.843Z,100.00
2023-06-26T06:11:21.519Z,100.00
2023-06-26T06:12:24.541Z,98.19
2023-06-26T06:13:27.234Z,97.96
2023-06-26T06:14:32.504Z,97.27
2023-06-26T06:15:36.161Z,96.84
2023-06-26T06:16:40.780Z,97.77
2023-06-26T06:17:44.370Z,98.21
2023-06-26T06:18:47.137Z,97.72
2023-06-26T06:19:50.057Z,97.22
2023-06-26T06:20:52.859Z,98.14
2023-06-26T06:21:55.596Z,97.62
2023-06-26T06:22:58.528Z,99.35
2023-06-26T06:24:02.512Z,100.00
2023-06-26T06:25:05.611Z,99.36
2023-06-26T06:26:08.276Z,97.31
2023-06-26T06:27:11.391Z,97.12
2023-06-26T06:28:17.441Z,96.49
2023-06-26T06:29:20.864Z,95.48
2023-06-26T06:30:39.214Z,94.71
2023-06-26T06:31:46.531Z,96.19
2023-06-26T06:32:51.607Z,95.35
2023-06-26T06:33:54.913Z,93.58
2023-06-26T06:34:58.541Z,91.31
2023-06-26T06:36:01.238Z,93.26
2023-06-26T06:37:04.790Z,92.76
2023-06-26T06:38:07.564Z,93.63
2023-06-26T06:39:10.500Z,91.64
2023-06-26T06:40:13.706Z,92.98
2023-06-26T06:41:17.503Z,93.16
2023-06-26T06:42:20.148Z,93.00
2023-06-26T06:43:22.824Z,90.42
2023-06-26T06:44:26.079Z,91.71
2023-06-26T06:45:28.741Z,88.92
2023-06-26T06:46:31.348Z,87.85
2023-06-26T06:47:34.584Z,87.62
2023-06-26T06:48:37.592Z,88.36
2023-06-26T06:49:40.784Z,88.40
2023-06-26T06:50:43.461Z,88.54
2023-06-26T06:51:46.097Z,91.46
2023-06-26T06:52:48.783Z,90.80
2023-06-26T06:53:54.474Z,90.83
2023-06-26T06:55:00.035Z,92.46
2023-06-26T06:56:03.004Z,89.82
2023-06-26T06:57:05.841Z,92.00
2023-06-26T06:58:08.677Z,93.15
2023-06-26T06:59:11.443Z,94.07
2023-06-26T07:00:18.426Z,92.77
2023-06-26T07:01:21.118Z,97.01
2023-06-26T07:02:23.863Z,95.93
2023-06-26T07:03:26.713Z,96.50
2023-06-26T07:04:29.691Z,95.04
2023-06-26T07:05:32.724Z,94.03
2023-06-26T07:06:35.560Z,95.57
2023-06-26T07:07:39.192Z,94.67
2023-06-26T07:08:41.849Z,93.89
2023-06-26T07:09:44.513Z,96.15
2023-06-26T07:10:47.800Z,96.69
2023-06-26T07:11:50.523Z,93.26
2023-06-26T07:12:53.181Z,91.66
2023-06-26T07:13:56.949Z,90.95
2023-06-26T07:14:59.662Z,88.98
2023-06-26T07:16:02.717Z,91.19
2023-06-26T07:17:05.503Z,90.45
2023-06-26T07:18:08.267Z,87.84
2023-06-26T07:19:11.421Z,89.03
2023-06-26T07:20:16.830Z,89.34
2023-06-26T07:21:19.859Z,86.82
2023-06-26T07:22:22.698Z,86.32
2023-06-26T07:23:25.356Z,86.80
2023-06-26T07:24:28.029Z,85.79
2023-06-26T07:25:30.746Z,81.84
2023-06-26T07:26:44.397Z,84.83
2023-06-26T07:27:48.886Z,83.40
2023-06-26T07:28:51.565Z,82.58
2023-06-26T07:29:54.279Z,79.24
2023-06-26T07:30:56.968Z,80.39
2023-06-26T07:31:59.975Z,81.17
2023-06-26T07:33:02.710Z,81.28
2023-06-26T07:34:05.431Z,80.18
2023-06-26T07:35:08.327Z,79.81
2023-06-26T07:36:11.086Z,76.02
2023-06-26T07:37:14.022Z,78.99
2023-06-26T07:38:16.734Z,77.47
2023-06-26T07:39:22.561Z,77.88
2023-06-26T07:40:27.332Z,75.54
2023-06-26T07:41:31.641Z,74.82
2023-06-26T07:42:34.668Z,75.17
2023-06-26T07:43:37.328Z,79.62
2023-06-26T07:44:39.994Z,78.15
2023-06-26T07:45:42.800Z,81.40
2023-06-26T07:46:48.507Z,81.88
2023-06-26T07:47:51.645Z,79.91
2023-06-26T07:48:55.001Z,78.15
2023-06-26T07:49:57.678Z,79.05
2023-06-26T07:51:00.339Z,80.84
2023-06-26T07:52:03.285Z,81.63
2023-06-26T07:53:06.866Z,83.72
2023-06-26T07:54:09.768Z,80.96
2023-06-26T07:55:12.519Z,80.33
2023-06-26T07:56:15.246Z,82.79
2023-06-26T07:57:17.880Z,82.55
2023-06-26T07:58:21.014Z,83.82
2023-06-26T07:59:25.053Z,86.28
2023-06-26T08:00:27.969Z,86.76
2023-06-26T08:01:30.977Z,86.46
2023-06-26T08:02:34.317Z,84.37
2023-06-26T08:03:47.785Z,86.13
2023-06-26T08:04:54.608Z,85.53
2023-06-26T08:05:58.676Z,87.67
2023-06-26T08:07:02.825Z,85.06
2023-06-26T08:08:05.617Z,87.34
2023-06-26T08:09:11.661Z,86.71
2023-06-26T08:10:14.392Z,85.75
2023-06-26T08:11:17.111Z,87.78
2023-06-26T08:12:20.119Z,87.95
2023-06-26T08:13:22.828Z,88.25
2023-06-26T08:14:25.853Z,89.24
2023-06-26T08:15:28.549Z,90.82
2023-06-26T08:16:31.280Z,89.85
2023-06-26T08:17:35.022Z,91.03
2023-06-26T08:18:37.717Z,87.25
2023-06-26T08:19:40.344Z,86.69
2023-06-26T08:20:43.067Z,88.25
2023-06-26T08:21:47.246Z,88.90
2023-06-26T08:22:52.382Z,89.01
2023-06-26T08:23:55.073Z,87.17
2023-06-26T08:24:58.098Z,86.74
2023-06-26T08:26:00.753Z,88.18
2023-06-26T08:27:04.726Z,88.80
2023-06-26T08:28:07.847Z,87.84
2023-06-26T08:29:12.600Z,86.85
2023-06-26T08:30:15.702Z,86.06
2023-06-26T08:31:18.579Z,86.82
2023-06-26T08:32:21.367Z,83.85
2023-06-26T08:33:24.390Z,83.23
2023-06-26T08:34:27.191Z,85.97
2023-06-26T08:35:29.971Z,82.70
2023-06-26T08:36:33.089Z,81.29
2023-06-26T08:37:35.781Z,83.61
2023-06-26T08:38:41.415Z,84.75
2023-06-26T08:39:44.229Z,82.16
2023-06-26T08:40:46.933Z,82.45
2023-06-26T08:41:49.634Z,80.30
2023-06-26T08:42:54.818Z,81.34
2023-06-26T08:43:58.073Z,80.79
2023-06-26T08:45:02.168Z,81.12
2023-06-26T08:46:05.592Z,81.81
2023-06-26T08:47:09.041Z,81.67
2023-06-26T08:48:11.873Z,83.66
2023-06-26T08:49:37.010Z,83.87
2023-06-26T08:50:41.191Z,85.34
2023-06-26T08:51:51.840Z,88.34
2023-06-26T08:52:56.303Z,87.41
2023-06-26T08:54:01.256Z,90.30
2023-06-26T08:55:10.449Z,89.54
2023-06-26T08:56:17.412Z,88.72
2023-06-26T08:57:21.632Z,87.29
2023-06-26T08:58:24.956Z,85.47
2023-06-26T08:59:28.847Z,87.02
2023-06-26T09:00:32.373Z,86.33
2023-06-26T09:01:35.682Z,84.12
2023-06-26T09:02:39.480Z,84.60
2023-06-26T09:03:45.498Z,84.79
2023-06-26T09:04:49.122Z,84.45
2023-06-26T09:05:52.073Z,82.82
2023-06-26T09:06:54.888Z,82.70
2023-06-26T09:07:59.232Z,79.70
2023-06-26T09:09:02.258Z,79.78
2023-06-26T09:10:05.132Z,76.17
2023-06-26T09:11:08.259Z,76.97
2023-06-26T09:12:11.103Z,75.67
2023-06-26T09:13:28.071Z,76.24
2023-06-26T09:14:32.070Z,72.74
2023-06-26T09:15:44.440Z,68.37
2023-06-26T09:16:47.470Z,70.00
2023-06-26T09:17:50.905Z,67.23
2023-06-26T09:18:54.451Z,67.57
2023-06-26T09:19:57.415Z,69.75
2023-06-26T09:21:00.182Z,66.86
2023-06-26T09:22:03.316Z,65.97
2023-06-26T09:23:06.651Z,68.25
2023-06-26T09:24:10.499Z,71.00
2023-06-26T09:25:13.658Z,64.20
2023-06-26T09:26:16.940Z,63.99
2023-06-26T09:27:19.970Z,65.91
2023-06-26T09:28:22.967Z,66.31
2023-06-26T09:29:27.493Z,63.68
2023-06-26T09:30:33.682Z,68.28
2023-06-26T09:31:42.707Z,72.47
2023-06-26T09:32:46.398Z,67.02
2023-06-26T09:33:49.702Z,69.12
2023-06-26T09:34:54.773Z,68.00
2023-06-26T09:35:57.419Z,67.50
2023-06-26T09:37:03.691Z,66.60
2023-06-26T09:38:08.768Z,70.51
2023-06-26T09:39:15.804Z,67.91
2023-06-26T09:40:18.653Z,67.01
2023-06-26T09:41:21.962Z,69.62
2023-06-26T09:42:24.961Z,70.64
2023-06-26T09:43:28.249Z,72.32
2023-06-26T09:44:33.094Z,69.54
2023-06-26T09:45:39.914Z,73.10
2023-06-26T09:46:45.918Z,70.51
2023-06-26T09:47:48.722Z,66.74
2023-06-26T09:48:59.521Z,68.64
2023-06-26T09:50:05.906Z,68.82
2023-06-26T09:51:13.548Z,70.86
2023-06-26T09:52:18.118Z,68.25
2023-06-26T09:53:21.540Z,65.48
2023-06-26T09:54:25.462Z,64.92
2023-06-26T09:55:28.222Z,66.64
2023-06-26T09:56:31.769Z,66.26
2023-06-26T09:57:35.916Z,64.51
2023-06-26T09:58:40.497Z,65.91
2023-06-26T09:59:46.577Z,66.34
2023-06-26T10:00:49.321Z,68.15
2023-06-26T10:02:00.912Z,68.18
2023-06-26T10:03:04.488Z,72.11
2023-06-26T10:04:07.865Z,74.15
2023-06-26T10:05:11.217Z,71.04
2023-06-26T10:06:14.774Z,69.57
2023-06-26T10:07:18.933Z,70.38
2023-06-26T10:08:22.143Z,68.98
2023-06-26T10:09:28.277Z,69.44
2023-06-26T10:10:34.664Z,69.49
2023-06-26T10:11:50.437Z,69.85
2023-06-26T10:13:16.383Z,68.96
2023-06-26T10:14:22.112Z,71.85
2023-06-26T10:15:26.573Z,70.15
2023-06-26T10:16:32.878Z,70.90
2023-06-26T10:17:37.753Z,71.73
2023-06-26T10:18:41.682Z,70.67
2023-06-26T10:19:46.401Z,72.77
2023-06-26T10:20:51.563Z,72.71
2023-06-26T10:21:55.423Z,72.07
2023-06-26T10:23:01.044Z,67.54
2023-06-26T10:24:05.237Z,68.87
2023-06-26T10:25:09.291Z,69.77
2023-06-26T10:26:13.094Z,69.99
2023-06-26T10:27:21.103Z,64.01
2023-06-26T10:28:24.970Z,64.49
2023-06-26T10:29:29.410Z,64.72
2023-06-26T10:30:36.870Z,64.04
2023-06-26T10:31:41.785Z,64.28
2023-06-26T10:32:45.005Z,65.38
2023-06-26T10:33:48.734Z,65.25
2023-06-26T10:34:52.611Z,61.73
2023-06-26T10:36:12.970Z,62.80
2023-06-26T10:37:15.709Z,63.16
2023-06-26T10:38:19.509Z,63.52
2023-06-26T10:39:23.039Z,62.56
2023-06-26T10:40:29.918Z,61.80
2023-06-26T10:41:49.674Z,62.55
2023-06-26T10:45:54.758Z,62.68
2023-06-26T10:46:59.902Z,64.07
2023-06-26T10:48:02.900Z,63.94
2023-06-26T10:49:05.978Z,60.82
2023-06-26T10:50:23.686Z,63.27
2023-06-26T10:51:28.622Z,59.74
2023-06-26T10:52:37.256Z,59.71
2023-06-26T10:53:40.069Z,59.51
2023-06-26T10:54:42.801Z,59.54
2023-06-26T10:55:58.690Z,59.63
2023-06-26T10:57:02.966Z,64.84
2023-06-26T10:58:06.056Z,62.76
2023-06-26T10:59:35.042Z,59.04
2023-06-26T11:00:38.558Z,60.63
2023-06-26T11:01:43.556Z,60.29
2023-06-26T11:02:53.205Z,63.11
2023-06-26T11:04:17.836Z,62.10
2023-06-26T11:05:34.368Z,61.81
2023-06-26T11:06:39.983Z,58.28
2023-06-26T11:08:06.148Z,58.99
2023-06-26T11:09:14.417Z,59.68
2023-06-26T11:10:17.513Z,58.16
2023-06-26T11:11:21.945Z,60.73
2023-06-26T11:12:45.819Z,61.49
2023-06-26T11:13:49.711Z,61.28
2023-06-26T11:14:52.781Z,58.77
2023-06-26T11:15:58.007Z,59.39
2023-06-26T11:17:04.169Z,60.63
2023-06-26T11:18:07.225Z,61.75
2023-06-26T11:19:11.456Z,63.51
2023-06-26T11:20:15.670Z,59.66
2023-06-26T11:21:23.879Z,59.20
2023-06-26T11:22:27.727Z,58.09
2023-06-26T11:23:31.376Z,57.93
2023-06-26T11:24:34.730Z,59.44
2023-06-26T11:25:38.753Z,61.58
2023-06-26T11:26:45.930Z,63.83
2023-06-26T11:27:48.875Z,61.13
2023-06-26T11:28:52.369Z,62.12
2023-06-26T11:29:55.327Z,61.38
2023-06-26T11:30:58.848Z,62.37
2023-06-26T11:32:05.630Z,61.16
2023-06-26T11:33:11.162Z,64.71
2023-06-26T11:34:14.951Z,64.63
2023-06-26T11:35:33.003Z,64.26
2023-06-26T11:36:39.136Z,62.63
2023-06-26T11:37:41.909Z,64.87
2023-06-26T11:38:46.171Z,63.67
2023-06-26T11:39:49.910Z,65.06
2023-06-26T11:40:52.580Z,63.20
2023-06-26T11:41:55.886Z,65.54
2023-06-26T11:43:01.070Z,63.38
2023-06-26T11:44:06.123Z,60.89
2023-06-26T11:45:09.069Z,60.31
2023-06-26T11:46:12.187Z,62.51
2023-06-26T11:47:18.087Z,62.72
2023-06-26T11:48:20.965Z,62.47
2023-06-26T11:49:26.515Z,64.20
2023-06-26T11:50:29.586Z,66.52
2023-06-26T11:51:32.590Z,66.99
2023-06-26T11:52:35.567Z,68.13
2023-06-26T11:53:46.299Z,68.07
2023-06-26T11:54:49.047Z,68.80
2023-06-26T11:55:51.749Z,65.85
2023-06-26T11:56:58.459Z,67.24
2023-06-26T11:58:01.427Z,67.21
2023-06-26T11:59:11.314Z,66.07
2023-06-26T12:00:15.821Z,66.97
2023-06-26T12:01:19.142Z,68.12
2023-06-26T12:02:22.472Z,68.85
2023-06-26T12:03:25.848Z,67.15
2023-06-26T12:04:29.091Z,68.95
2023-06-26T12:05:31.965Z,67.94
2023-06-26T12:06:36.905Z,68.26
2023-06-26T12:07:39.892Z,68.76
2023-06-26T12:08:43.140Z,70.97
2023-06-26T12:09:47.959Z,68.50
2023-06-26T12:10:51.262Z,69.41
2023-06-26T12:11:56.053Z,70.54
2023-06-26T12:13:00.233Z,69.44
2023-06-26T12:14:03.683Z,72.52
2023-06-26T12:15:08.875Z,71.76
2023-06-26T12:16:15.273Z,70.68
2023-06-26T12:17:18.337Z,70.47
2023-06-26T12:18:22.009Z,69.26
2023-06-26T12:19:28.382Z,68.04
2023-06-26T12:20:33.494Z,65.18
2023-06-26T12:21:38.972Z,63.05
2023-06-26T12:22:42.021Z,62.79
2023-06-26T12:23:44.828Z,63.18
2023-06-26T12:24:48.816Z,63.63
2023-06-26T12:25:52.978Z,64.58
2023-06-26T12:26:58.341Z,64.41
2023-06-26T12:28:01.305Z,62.57
2023-06-26T12:29:08.075Z,63.74
2023-06-26T12:30:11.415Z,63.70
2023-06-26T12:31:18.364Z,62.64
2023-06-26T12:32:23.965Z,63.77
2023-06-26T12:33:27.026Z,65.86
2023-06-26T12:34:34.048Z,67.93
2023-06-26T12:35:38.118Z,66.15
2023-06-26T12:36:42.449Z,66.76
2023-06-26T12:37:47.121Z,65.62
2023-06-26T12:38:51.362Z,61.38
2023-06-26T12:39:58.538Z,68.41
2023-06-26T12:41:01.382Z,64.21
2023-06-26T12:42:06.446Z,61.74
2023-06-26T12:43:12.953Z,62.06
2023-06-26T12:44:42.084Z,61.33
2023-06-26T12:45:44.861Z,61.33
2023-06-26T12:46:49.963Z,59.22
2023-06-26T12:47:54.040Z,60.36
2023-06-26T12:48:56.869Z,61.08
2023-06-26T12:49:59.911Z,62.80
2023-06-26T12:51:10.566Z,66.19
2023-06-26T12:52:15.830Z,69.88
2023-06-26T12:53:18.616Z,68.65
2023-06-26T12:54:21.389Z,69.60
2023-06-26T12:55:24.368Z,69.62
2023-06-26T12:56:27.159Z,66.44
2023-06-26T12:57:29.998Z,65.06
2023-06-26T12:58:32.694Z,64.41
2023-06-26T12:59:38.558Z,62.78
2023-06-26T13:00:42.505Z,63.48
2023-06-26T13:01:45.578Z,65.57
2023-06-26T13:02:48.444Z,64.30
2023-06-26T13:03:54.630Z,67.52
2023-06-26T13:04:57.438Z,64.94
2023-06-26T13:06:00.390Z,65.21
2023-06-26T13:07:03.777Z,64.99
2023-06-26T13:08:07.001Z,65.66
2023-06-26T13:09:10.080Z,66.92
2023-06-26T13:10:13.191Z,69.29
2023-06-26T13:11:18.146Z,65.81
2023-06-26T13:12:20.893Z,67.25
2023-06-26T13:13:23.586Z,65.81
2023-06-26T13:14:26.229Z,63.05
2023-06-26T13:15:29.406Z,65.25
2023-06-26T13:16:32.462Z,66.02
2023-06-26T13:17:35.180Z,70.24
2023-06-26T13:18:37.894Z,66.92
2023-06-26T13:19:40.579Z,68.60
2023-06-26T13:20:47.589Z,68.58
2023-06-26T13:21:53.428Z,65.14
2023-06-26T13:22:56.508Z,65.01
2023-06-26T13:24:00.415Z,66.78
2023-06-26T13:25:03.214Z,65.15
2023-06-26T13:26:06.879Z,62.75
2023-06-26T13:27:09.806Z,63.99
2023-06-26T13:28:12.553Z,64.70
2023-06-26T13:29:15.352Z,61.44
2023-06-26T13:30:18.751Z,61.86
2023-06-26T13:31:21.733Z,63.16
2023-06-26T13:32:25.677Z,62.19
2023-06-26T13:33:28.378Z,64.34
2023-06-26T13:34:31.258Z,66.45
2023-06-26T13:35:33.956Z,64.90
2023-06-26T13:36:36.700Z,68.41
2023-06-26T13:37:39.655Z,65.89
2023-06-26T13:38:42.495Z,66.09
2023-06-26T13:39:50.769Z,68.09
2023-06-26T13:40:58.661Z,68.53
2023-06-26T13:42:01.476Z,67.44
2023-06-26T13:43:05.073Z,68.17
2023-06-26T13:44:25.507Z,67.40
2023-06-26T13:45:31.762Z,68.65
2023-06-26T13:46:34.923Z,70.30
2023-06-26T13:47:41.599Z,68.78
2023-06-26T13:48:45.856Z,68.03